Airfield :
LOGIN :

Register | Disclaimer

   EN    FR    IT 

 










Legend :    VFR   Marginal VFR   IFR   Intensive IFR   Very Intensive IFR
Visi :
Ceiling :
>= 8 km
>= 3000ft
5 to 8 km
1000 to 3000 ft
1500m to 5 km
500 to 1000 ft
800 to 1500m
200 to 500 ft
< 800m
< 200 ft
Symbols :   Thunderstorms  Fog  Heavy snow  Heavy precipitations  Wind > 20 kt
SIGMETs :     Misc.  Thunderstorms  Icing  Turbulence  Mountain Waves  Volcanic Ashes






- Airport Elevation : 171 ft
- IATA code : EGC


LFBE - Bergerac

CURRENT METAR :
  • 181230Z AUTO 17005KT 120V220 CAVOK 31/18 Q1017 NOSIG

EXPIRED METARs :
  • 181200Z AUTO VRB05KT CAVOK 30/17 Q1017 NOSIG
  • 181130Z AUTO VRB04KT CAVOK 29/18 Q1017 NOSIG
  • 181100Z AUTO VRB03KT CAVOK 28/20 Q1018 NOSIG
  • 181030Z AUTO VRB03KT CAVOK 28/19 Q1018 NOSIG
  • 181000Z AUTO 06004KT 360V130 CAVOK 27/19 Q1018 NOSIG

TAF TAF LFBE
Valid from the 18 at 12:00 until the 19 at 12:00 UTC


181100Z 1812/1912 12010KT CAVOK
TEMPO 1818/1902 4000 SHRA SCT050CB BKN060TCU
PROB40
TEMPO 1821/1901 VRB15G30KT 2000 TSRA BKN040CB
BECMG 1902/1904 22005KT
TEMPO 1904/1910 -SHRA BKN008 BKN070TCU



MET'MAP, your aeronautical weather chart ! - Copyright ORBIFLY December 2007 - Disclaimer

ORBIFLY MET'MAP TEAM :

Programming & Development : Alexandra Zaïnal
Original concept : Baudouin d'Aumeries
Technical & hardware support : Manuel Goepfert
Assistance : Marc-Olivier Méhu

Contact : metmap@orbifly.com




SOURCES & CREDITS :

   NOAA